Time;durP1;ratioP1;P1;durP2;ratioP2;P2;SDS_P1;SDS_P2;PMS_P1;PMS_P2;Temp;Humidity;BMP_temperature;BMP_pressure;BME280_temperature;BME280_humidity;BME280_pressure;Samples;Min_cycle;Max_cycle;Signal;HPM_P1;HPM_P2
2023/05/06 00:01:36;;;;;;;0.00;0.00;;;12.50;99.90;;;;;;5009936;28;20027;-82
2023/05/06 00:04:22;;;;;;;0.00;0.00;;;12.50;99.90;;;;;;5007091;28;20030;-83
2023/05/06 00:06:48;;;;;;;0.00;0.00;;;12.50;99.90;;;;;;4998798;28;20132;-83
2023/05/06 00:09:26;;;;;;;0.00;0.00;;;;;;;;;;4998993;28;20086;-83
2023/05/06 00:12:12;;;;;;;0.00;0.00;;;12.60;99.90;;;;;;5004079;28;20046;-84
2023/05/06 00:14:38;;;;;;;0.00;0.00;;;12.50;99.90;;;;;;5015687;28;20023;-83
2023/05/06 00:17:04;;;;;;;0.00;0.00;;;12.60;99.90;;;;;;4996900;28;20046;-81
2023/05/06 00:19:45;;;;;;;0.00;0.00;;;12.60;99.90;;;;;;5023115;28;20014;-81
2023/05/06 00:22:30;;;;;;;0.00;0.00;;;12.60;99.90;;;;;;5003452;28;20073;-83
2023/05/06 00:24:56;;;;;;;0.00;0.00;;;12.60;99.90;;;;;;5004397;28;20040;-82
2023/05/06 00:27:22;;;;;;;0.00;0.00;;;12.60;99.90;;;;;;5002984;28;20078;-82
2023/05/06 00:29:47;;;;;;;0.00;0.00;;;12.60;99.90;;;;;;5013768;28;20027;-83
2023/05/06 00:32:13;;;;;;;0.00;0.00;;;12.60;99.90;;;;;;5014870;28;20038;-81
2023/05/06 00:34:51;;;;;;;0.00;0.00;;;12.60;99.90;;;;;;5010353;28;20031;-81
2023/05/06 00:37:16;;;;;;;0.00;0.00;;;12.60;99.90;;;;;;5008182;28;20030;-82
2023/05/06 00:39:42;;;;;;;0.00;0.00;;;12.50;99.90;;;;;;5014918;28;20031;-83
2023/05/06 00:42:08;;;;;;;0.00;0.00;;;12.50;99.90;;;;;;5008780;28;20027;-83
2023/05/06 00:44:33;;;;;;;0.00;0.00;;;12.40;99.90;;;;;;4986615;28;20089;-83
2023/05/06 00:47:00;;;;;;;0.00;0.00;;;12.40;99.90;;;;;;4997642;28;20090;-82
2023/05/06 00:50:05;;;;;;;0.00;0.00;;;12.30;99.90;;;;;;5002630;28;20113;-82
2023/05/06 00:52:31;;;;;;;0.00;0.00;;;12.20;99.90;;;;;;5015391;28;20026;-82
2023/05/06 00:54:57;;;;;;;0.00;0.00;;;12.10;99.90;;;;;;4999596;28;20041;-82
2023/05/06 00:57:33;;;;;;;0.00;0.00;;;12.10;99.90;;;;;;4983601;28;20022;-83
2023/05/06 00:59:59;;;;;;;0.00;0.00;;;12.10;99.90;;;;;;4983734;28;20026;-82
2023/05/06 01:03:08;;;;;;;0.00;0.00;;;12.00;99.90;;;;;;4980500;28;20387;-82
2023/05/06 01:05:46;;;;;;;0.00;0.00;;;12.00;99.90;;;;;;4978260;28;20107;-82
2023/05/06 01:08:25;;;;;;;0.00;0.00;;;12.00;99.90;;;;;;4983389;28;20026;-83
2023/05/06 01:11:01;;;;;;;0.00;0.00;;;11.90;99.90;;;;;;5020198;28;20082;-83
2023/05/06 01:17:19;;;;;;;0.00;0.00;;;11.90;99.90;;;;;;5020487;28;20034;-82
2023/05/06 01:19:49;;;;;;;0.00;0.00;;;11.90;99.90;;;;;;4987981;28;20157;-82
2023/05/06 01:22:17;;;;;;;0.00;0.00;;;11.80;99.90;;;;;;4985832;28;20023;-82
2023/05/06 01:25:44;;;;;;;0.00;0.00;;;11.80;99.90;;;;;;5014579;28;20029;-82
2023/05/06 01:28:20;;;;;;;0.00;0.00;;;11.70;99.90;;;;;;4975147;28;20041;-82
2023/05/06 01:30:59;;;;;;;0.00;0.00;;;11.70;99.90;;;;;;5002953;28;20031;-83
2023/05/06 01:33:32;;;;;;;0.00;0.00;;;11.70;99.90;;;;;;4985526;28;20025;-82
2023/05/06 01:36:11;;;;;;;0.00;0.00;;;11.70;99.90;;;;;;4984878;28;20498;-82
2023/05/06 01:38:49;;;;;;;0.00;0.00;;;11.70;99.90;;;;;;4985719;28;20057;-81
2023/05/06 01:41:16;;;;;;;0.00;0.00;;;11.70;99.90;;;;;;5002899;28;20455;-83
2023/05/06 01:43:53;;;;;;;0.00;0.00;;;11.70;99.90;;;;;;4967165;28;20035;-81
2023/05/06 01:46:26;;;;;;;0.00;0.00;;;11.60;99.90;;;;;;4985946;28;20310;-82
2023/05/06 01:49:35;;;;;;;0.00;0.00;;;11.70;99.90;;;;;;4998690;28;20042;-81
2023/05/06 02:00:30;;;;;;;;;;;;;;;;;;;;;
2023/05/06 02:03:26;;;;;;;0.00;0.00;;;11.70;99.90;;;;;;4891390;29;20044;-82
2023/05/06 02:05:54;;;;;;;0.00;0.00;;;11.70;99.90;;;;;;4868395;29;20130;-82
2023/05/06 02:08:20;;;;;;;0.00;0.00;;;11.80;99.90;;;;;;4975025;28;20026;-83
2023/05/06 02:10:46;;;;;;;0.00;0.00;;;11.90;99.90;;;;;;4968625;28;20027;-82
2023/05/06 02:13:19;;;;;;;0.00;0.00;;;11.90;99.90;;;;;;4983176;28;20034;-82
2023/05/06 02:15:55;;;;;;;0.00;0.00;;;11.80;99.90;;;;;;4989344;28;20042;-82
2023/05/06 02:18:21;;;;;;;0.00;0.00;;;11.80;99.90;;;;;;4984635;28;20027;-81
2023/05/06 02:27:54;;;;;;;0.00;0.00;;;11.70;99.90;;;;;;4980690;28;20041;-82
2023/05/06 02:41:31;;;;;;;0.00;0.00;;;11.60;99.90;;;;;;4977692;28;20237;-81
2023/05/06 02:43:58;;;;;;;0.00;0.00;;;11.50;99.90;;;;;;4952893;29;20038;-82
2023/05/06 02:53:16;;;;;;;0.00;0.00;;;11.50;99.90;;;;;;4966407;28;20043;-82
2023/05/06 02:56:37;;;;;;;0.00;0.00;;;11.50;99.90;;;;;;4994380;28;20023;-82
2023/05/06 02:59:03;;;;;;;0.00;0.00;;;11.40;99.90;;;;;;4951847;29;20078;-82
2023/05/06 03:01:34;;;;;;;0.00;0.00;;;11.40;99.90;;;;;;4969040;28;20087;-82
2023/05/06 03:04:35;;;;;;;0.00;0.00;;;11.40;99.90;;;;;;5003402;28;20133;-81
2023/05/06 03:07:11;;;;;;;0.00;0.00;;;11.50;99.90;;;;;;4978418;28;20026;-81
2023/05/06 03:13:04;;;;;;;0.00;0.00;;;11.50;99.90;;;;;;4967789;28;20046;-78
2023/05/06 03:15:31;;;;;;;0.00;0.00;;;11.60;99.90;;;;;;4982604;28;20077;-77
2023/05/06 03:17:56;;;;;;;0.00;0.00;;;11.60;99.90;;;;;;4991058;28;20030;-79
2023/05/06 03:20:22;;;;;;;0.00;0.00;;;11.70;99.90;;;;;;5000340;28;20443;-78
2023/05/06 03:22:49;;;;;;;0.00;0.00;;;11.70;99.90;;;;;;5016527;28;20370;-78
2023/05/06 03:25:14;;;;;;;0.00;0.00;;;11.70;99.90;;;;;;5014491;28;20045;-78
2023/05/06 03:27:40;;;;;;;0.00;0.00;;;11.80;99.90;;;;;;5013267;28;20036;-77
2023/05/06 03:30:07;;;;;;;0.00;0.00;;;11.70;99.90;;;;;;5006338;28;20073;-78
2023/05/06 03:32:33;;;;;;;0.00;0.00;;;11.70;99.90;;;;;;4979360;28;20034;-78
2023/05/06 03:34:59;;;;;;;0.00;0.00;;;11.70;99.90;;;;;;4980633;28;20081;-81
2023/05/06 03:37:25;;;;;;;0.00;0.00;;;11.70;99.90;;;;;;4982120;28;20027;-78
2023/05/06 03:39:50;;;;;;;0.00;0.00;;;11.60;99.90;;;;;;4999684;28;20036;-79
2023/05/06 03:42:16;;;;;;;0.00;0.00;;;11.60;99.90;;;;;;4998165;28;20072;-79
2023/05/06 03:44:41;;;;;;;0.00;0.00;;;11.60;99.90;;;;;;4980487;28;20082;-78
2023/05/06 03:47:07;;;;;;;0.00;0.00;;;11.60;99.90;;;;;;4998634;28;20022;-79
2023/05/06 03:49:33;;;;;;;0.00;0.00;;;11.50;99.90;;;;;;4982995;28;20030;-78
2023/05/06 03:52:00;;;;;;;0.00;0.00;;;11.50;99.90;;;;;;5001926;28;20022;-80
2023/05/06 03:54:26;;;;;;;0.00;0.00;;;11.50;99.90;;;;;;4993935;28;20082;-83
2023/05/06 03:56:52;;;;;;;0.00;0.00;;;11.50;99.90;;;;;;4988224;28;20033;-82
2023/05/06 04:00:02;;;;;;;0.00;0.00;;;11.40;99.90;;;;;;4991028;28;20037;-82
2023/05/06 04:02:50;;;;;;;0.00;0.00;;;11.40;99.90;;;;;;5002621;28;20027;-83
2023/05/06 04:05:15;;;;;;;0.00;0.00;;;11.40;99.90;;;;;;4968475;28;20091;-81
2023/05/06 04:07:41;;;;;;;0.00;0.00;;;11.40;99.90;;;;;;4983422;28;20034;-83
2023/05/06 04:10:20;;;;;;;0.00;0.00;;;11.30;99.90;;;;;;4998054;28;20034;-81
2023/05/06 04:12:59;;;;;;;0.00;0.00;;;11.30;99.90;;;;;;5008692;28;20040;-82
2023/05/06 04:15:40;;;;;;;0.00;0.00;;;11.40;99.90;;;;;;5009960;28;20049;-82
2023/05/06 04:18:07;;;;;;;0.00;0.00;;;11.40;99.90;;;;;;4993958;28;20094;-81
2023/05/06 04:20:35;;;;;;;0.00;0.00;;;11.40;99.90;;;;;;4993413;28;20022;-80
2023/05/06 04:26:35;;;;;;;0.00;0.00;;;11.40;99.90;;;;;;5001421;28;20149;-82
2023/05/06 04:29:01;;;;;;;0.00;0.00;;;11.40;99.90;;;;;;5002416;28;20050;-83
2023/05/06 04:31:31;;;;;;;0.00;0.00;;;11.40;99.90;;;;;;5011548;28;20046;-82
2023/05/06 04:34:21;;;;;;;0.00;0.00;;;11.40;99.90;;;;;;4993366;28;20098;-82
2023/05/06 04:36:49;;;;;;;0.00;0.00;;;11.40;99.90;;;;;;4992635;28;20030;-82
2023/05/06 04:39:17;;;;;;;0.00;0.00;;;11.50;99.90;;;;;;5005024;28;20023;-82
2023/05/06 04:41:45;;;;;;;0.00;0.00;;;11.50;99.90;;;;;;4966216;28;20481;-84
2023/05/06 04:44:11;;;;;;;0.00;0.00;;;11.40;99.90;;;;;;4982499;28;20050;-83
2023/05/06 04:46:37;;;;;;;0.00;0.00;;;11.40;99.90;;;;;;4999742;28;20027;-84
2023/05/06 04:49:03;;;;;;;0.00;0.00;;;11.50;99.90;;;;;;5000332;28;20114;-82
2023/05/06 04:51:44;;;;;;;0.00;0.00;;;11.60;99.90;;;;;;5002668;28;20028;-83
2023/05/06 04:54:16;;;;;;;0.00;0.00;;;11.70;99.90;;;;;;4996925;28;20352;-82
2023/05/06 04:56:41;;;;;;;0.00;0.00;;;11.80;99.90;;;;;;5009131;28;20037;-83
2023/05/06 04:59:07;;;;;;;0.00;0.00;;;12.00;99.90;;;;;;5014834;28;20022;-82
2023/05/06 05:01:32;;;;;;;0.00;0.00;;;12.00;99.90;;;;;;4991502;28;20047;-83
2023/05/06 05:03:58;;;;;;;0.00;0.00;;;12.10;99.90;;;;;;4984964;28;20030;-81
2023/05/06 05:06:24;;;;;;;0.00;0.00;;;12.20;99.90;;;;;;4984848;28;20041;-80
2023/05/06 05:08:50;;;;;;;0.00;0.00;;;12.20;99.90;;;;;;5001954;28;20026;-81
2023/05/06 05:11:15;;;;;;;0.00;0.00;;;12.30;99.90;;;;;;5003945;28;20062;-82
2023/05/06 05:13:41;;;;;;;0.00;0.00;;;12.30;99.90;;;;;;5014417;28;20079;-78
2023/05/06 05:16:07;;;;;;;0.00;0.00;;;12.30;99.90;;;;;;5012178;28;20062;-81
2023/05/06 05:18:35;;;;;;;0.00;0.00;;;12.30;99.90;;;;;;5006633;28;20045;-81
2023/05/06 05:21:01;;;;;;;0.00;0.00;;;12.30;99.90;;;;;;5000038;28;20039;-82
2023/05/06 05:23:27;;;;;;;0.00;0.00;;;12.30;99.90;;;;;;5005594;28;20022;-80
2023/05/06 05:25:52;;;;;;;0.00;0.00;;;12.40;99.90;;;;;;5007300;28;20045;-82
2023/05/06 05:28:33;;;;;;;0.00;0.00;;;12.60;99.90;;;;;;5015415;28;20033;-79
2023/05/06 05:31:03;;;;;;;0.00;0.00;;;12.70;99.90;;;;;;4998079;28;20025;-80
2023/05/06 05:33:29;;;;;;;0.00;0.00;;;12.80;99.90;;;;;;4995539;28;20041;-83
2023/05/06 05:35:56;;;;;;;0.00;0.00;;;12.90;99.90;;;;;;4971330;28;20065;-82
2023/05/06 05:38:22;;;;;;;0.00;0.00;;;12.90;99.90;;;;;;4997796;28;20027;-82
2023/05/06 05:40:48;;;;;;;0.00;0.00;;;12.90;99.90;;;;;;4965322;28;20031;-82
2023/05/06 05:43:13;;;;;;;0.00;0.00;;;12.90;99.90;;;;;;5005234;28;20050;-78
2023/05/06 05:45:39;;;;;;;0.00;0.00;;;12.80;99.90;;;;;;5014070;28;20037;-78
2023/05/06 05:48:05;;;;;;;0.00;0.00;;;12.80;99.90;;;;;;4993218;28;20030;-81
2023/05/06 05:50:31;;;;;;;0.00;0.00;;;12.90;99.90;;;;;;4990089;28;20102;-82
2023/05/06 05:52:56;;;;;;;0.00;0.00;;;12.90;99.90;;;;;;5010784;28;20033;-79
2023/05/06 05:55:22;;;;;;;0.00;0.00;;;13.00;99.90;;;;;;5017228;28;20014;-80
2023/05/06 05:57:48;;;;;;;0.00;0.00;;;13.00;99.90;;;;;;5012577;28;20050;-82
2023/05/06 06:00:14;;;;;;;0.00;0.00;;;13.10;99.90;;;;;;4987777;28;20126;-82
2023/05/06 06:02:40;;;;;;;0.00;0.00;;;13.30;99.90;;;;;;4991200;28;20090;-81
2023/05/06 06:05:06;;;;;;;0.00;0.00;;;13.40;99.90;;;;;;4988041;28;20053;-81
2023/05/06 06:07:32;;;;;;;0.00;0.00;;;13.50;99.90;;;;;;4987949;28;20085;-81
2023/05/06 06:09:59;;;;;;;0.00;0.00;;;13.60;99.90;;;;;;4988229;28;20030;-80
2023/05/06 06:12:25;;;;;;;0.00;0.00;;;13.70;99.90;;;;;;4987507;28;20022;-81
2023/05/06 06:14:51;;;;;;;0.00;0.00;;;13.80;99.90;;;;;;4986867;28;20172;-81
2023/05/06 06:17:16;;;;;;;0.00;0.00;;;13.90;99.90;;;;;;5004464;28;20105;-83
2023/05/06 06:19:45;;;;;;;0.00;0.00;;;13.90;99.90;;;;;;5004863;28;20105;-82
2023/05/06 06:22:11;;;;;;;0.00;0.00;;;14.00;99.90;;;;;;5004938;28;20026;-83
2023/05/06 06:24:37;;;;;;;0.00;0.00;;;14.00;99.90;;;;;;4986411;28;20058;-82
2023/05/06 06:27:03;;;;;;;0.00;0.00;;;14.00;99.90;;;;;;5005062;28;20030;-83
2023/05/06 06:29:28;;;;;;;0.00;0.00;;;13.80;99.90;;;;;;4987854;28;20034;-80
2023/05/06 06:31:57;;;;;;;0.00;0.00;;;13.80;99.90;;;;;;5004171;28;20038;-81
2023/05/06 06:34:23;;;;;;;0.00;0.00;;;13.60;99.90;;;;;;5004081;28;20034;-80
2023/05/06 06:36:49;;;;;;;0.00;0.00;;;13.60;99.90;;;;;;5003661;28;20045;-81
2023/05/06 06:39:15;;;;;;;0.00;0.00;;;13.60;99.90;;;;;;4987600;28;20093;-82
2023/05/06 06:41:41;;;;;;;0.00;0.00;;;13.60;99.90;;;;;;4994379;28;20034;-80
2023/05/06 06:44:07;;;;;;;0.00;0.00;;;13.70;99.90;;;;;;4997217;28;20495;-78
2023/05/06 06:46:33;;;;;;;0.17;0.00;;;13.70;99.90;;;;;;5015560;28;20014;-78
2023/05/06 06:49:00;;;;;;;0.00;0.00;;;13.60;99.90;;;;;;5014618;28;20041;-82
2023/05/06 06:51:26;;;;;;;0.00;0.00;;;13.60;99.90;;;;;;4982812;28;20034;-81
2023/05/06 06:53:52;;;;;;;0.00;0.00;;;13.70;99.90;;;;;;4985077;28;20027;-81
2023/05/06 06:56:17;;;;;;;0.00;0.00;;;13.70;99.90;;;;;;4982632;28;20105;-82
2023/05/06 06:58:43;;;;;;;0.08;0.08;;;13.70;99.90;;;;;;4982298;28;20030;-82
2023/05/06 07:01:09;;;;;;;0.13;0.13;;;13.70;99.90;;;;;;5003843;28;20093;-81
2023/05/06 07:03:35;;;;;;;0.10;0.10;;;13.70;99.90;;;;;;4986303;28;20076;-81
2023/05/06 07:06:00;;;;;;;0.05;0.05;;;13.60;99.90;;;;;;5005138;28;20495;-84
2023/05/06 07:08:26;;;;;;;0.10;0.10;;;13.60;99.90;;;;;;5006448;28;20102;-82
2023/05/06 07:10:52;;;;;;;0.20;0.20;;;13.60;99.90;;;;;;5004475;28;20037;-82
2023/05/06 07:13:19;;;;;;;0.20;0.20;;;13.70;99.90;;;;;;5005023;28;20045;-81
2023/05/06 07:15:45;;;;;;;0.17;0.17;;;13.70;99.90;;;;;;5008137;28;20037;-80
2023/05/06 07:18:10;;;;;;;0.20;0.20;;;13.70;99.90;;;;;;5007550;28;20097;-83
2023/05/06 07:20:36;;;;;;;0.45;0.10;;;13.70;99.90;;;;;;4988946;28;20049;-81
2023/05/06 07:23:02;;;;;;;0.10;0.10;;;13.80;99.90;;;;;;5004684;28;20049;-81
2023/05/06 07:25:30;;;;;;;0.00;0.00;;;13.90;99.90;;;;;;4986610;28;20029;-81
2023/05/06 07:27:55;;;;;;;0.10;0.10;;;14.20;99.90;;;;;;5005589;28;20109;-78
2023/05/06 07:30:21;;;;;;;0.10;0.10;;;14.40;99.90;;;;;;5015868;28;20152;-78
2023/05/06 07:32:47;;;;;;;0.03;0.03;;;14.70;99.90;;;;;;5015797;28;20022;-78
2023/05/06 07:35:13;;;;;;;0.10;0.10;;;15.10;99.90;;;;;;5016410;28;20037;-77
2023/05/06 07:37:38;;;;;;;0.10;0.10;;;15.40;99.90;;;;;;5007041;28;20498;-81
2023/05/06 07:40:05;;;;;;;0.13;0.13;;;15.60;99.90;;;;;;5007500;28;20041;-77
2023/05/06 07:42:31;;;;;;;0.10;0.10;;;15.80;99.90;;;;;;5001061;28;20030;-79
2023/05/06 07:44:57;;;;;;;0.00;0.00;;;15.80;99.90;;;;;;5000401;28;20034;-79
2023/05/06 07:47:28;;;;;;;0.10;0.10;;;15.90;99.90;;;;;;5000184;28;20014;-79
2023/05/06 07:49:54;;;;;;;0.10;0.10;;;16.00;99.90;;;;;;5017396;28;20027;-78
2023/05/06 07:52:21;;;;;;;0.00;0.00;;;;;;;;;;5007671;28;20014;-79
2023/05/06 07:54:47;;;;;;;0.00;0.00;;;;;;;;;;4996421;28;20041;-79
2023/05/06 07:57:13;;;;;;;0.10;0.10;;;;;;;;;;4998021;28;20038;-78
2023/05/06 07:59:40;;;;;;;0.03;0.03;;;;;;;;;;5016669;28;20082;-82
2023/05/06 08:02:06;;;;;;;0.00;0.00;;;;;;;;;;5017106;28;20030;-79
2023/05/06 08:04:32;;;;;;;0.10;0.10;;;;;;;;;;5016400;28;20034;-77
2023/05/06 08:07:01;;;;;;;0.00;0.00;;;;;;;;;;4999700;28;20030;-80
2023/05/06 08:09:27;;;;;;;0.08;0.08;;;;;;;;;;4999860;28;20034;-77
2023/05/06 08:11:57;;;;;;;0.00;0.00;;;;;;;;;;5016275;28;20045;-78
2023/05/06 08:14:24;;;;;;;0.10;0.10;;;;;;;;;;5016501;28;20010;-78
2023/05/06 08:16:51;;;;;;;0.10;0.10;;;;;;;;;;4990746;28;20034;-83
2023/05/06 08:19:17;;;;;;;0.10;0.10;;;;;;;;;;4986701;28;20026;-82
2023/05/06 08:21:43;;;;;;;0.00;0.00;;;;;;;;;;4984643;28;20038;-81
2023/05/06 08:24:09;;;;;;;0.10;0.10;;;17.00;99.90;;;;;;4985193;28;20041;-81
2023/05/06 08:26:35;;;;;;;0.10;0.10;;;16.90;99.90;;;;;;5001703;28;20022;-81
2023/05/06 08:29:02;;;;;;;0.00;0.00;;;16.80;99.90;;;;;;5000240;28;20057;-81
2023/05/06 08:31:28;;;;;;;0.00;0.00;;;16.70;99.90;;;;;;5001568;28;20042;-81
2023/05/06 08:33:53;;;;;;;0.08;0.08;;;16.80;99.90;;;;;;5001957;28;20045;-81
2023/05/06 08:36:19;;;;;;;0.10;0.10;;;17.00;99.90;;;;;;5001295;28;20085;-80
2023/05/06 08:38:49;;;;;;;0.10;0.10;;;17.10;99.90;;;;;;5001333;28;20090;-83
2023/05/06 08:41:20;;;;;;;0.10;0.10;;;17.10;99.90;;;;;;5001257;28;20023;-82
2023/05/06 08:43:48;;;;;;;0.30;0.30;;;17.20;99.90;;;;;;5002100;28;20042;-82
2023/05/06 08:46:15;;;;;;;0.20;0.20;;;17.30;99.90;;;;;;4968233;28;20078;-82
2023/05/06 08:48:41;;;;;;;0.17;0.17;;;17.50;99.90;;;;;;5000270;28;20026;-84
2023/05/06 08:51:08;;;;;;;0.10;0.10;;;17.80;99.90;;;;;;5000878;28;20065;-82
2023/05/06 08:53:34;;;;;;;0.10;0.10;;;18.00;99.90;;;;;;5001719;28;20037;-80
2023/05/06 08:56:07;;;;;;;0.13;0.13;;;18.20;99.90;;;;;;4999982;28;20026;-81
2023/05/06 08:58:36;;;;;;;0.10;0.10;;;18.30;99.90;;;;;;4983662;28;20030;-81
2023/05/06 09:01:03;;;;;;;0.10;0.10;;;18.20;99.90;;;;;;4983287;28;20033;-81
2023/05/06 09:03:29;;;;;;;0.10;0.10;;;18.00;99.90;;;;;;4989894;28;20101;-79
2023/05/06 09:05:56;;;;;;;0.20;0.20;;;17.90;99.90;;;;;;4968713;28;20031;-81
2023/05/06 09:08:22;;;;;;;0.13;0.13;;;17.80;99.90;;;;;;4978687;28;20419;-81
2023/05/06 09:10:47;;;;;;;0.20;0.20;;;17.80;99.90;;;;;;5001871;28;20105;-82
2023/05/06 09:13:17;;;;;;;0.20;0.20;;;18.10;99.90;;;;;;5000828;28;20487;-82
2023/05/06 09:15:48;;;;;;;0.30;0.30;;;18.20;99.90;;;;;;4982072;28;20065;-81
2023/05/06 09:18:15;;;;;;;0.37;0.37;;;18.30;99.90;;;;;;5000285;28;20685;-82
2023/05/06 09:20:46;;;;;;;0.30;0.30;;;18.20;99.90;;;;;;4998844;28;20053;-80
2023/05/06 09:23:15;;;;;;;0.23;0.23;;;18.20;99.90;;;;;;5000233;28;20510;-81
2023/05/06 09:25:43;;;;;;;0.30;0.30;;;18.20;99.90;;;;;;5002318;28;20440;-81
2023/05/06 09:28:10;;;;;;;0.30;0.30;;;18.30;99.90;;;;;;5004921;28;20037;-82
2023/05/06 09:30:41;;;;;;;0.28;0.28;;;18.30;99.90;;;;;;5003039;28;20042;-82
2023/05/06 09:33:08;;;;;;;0.30;0.30;;;18.10;99.90;;;;;;4979210;28;20029;-82
2023/05/06 09:35:40;;;;;;;0.20;0.20;;;17.70;99.90;;;;;;4986952;28;20038;-81
2023/05/06 09:38:07;;;;;;;0.20;0.20;;;17.60;99.90;;;;;;5015940;28;20019;-77
2023/05/06 09:40:37;;;;;;;0.20;0.20;;;17.30;99.90;;;;;;5017307;28;20029;-78
2023/05/06 09:43:04;;;;;;;0.47;0.47;;;17.10;99.90;;;;;;4994051;28;20037;-81
2023/05/06 09:45:30;;;;;;;0.60;0.60;;;16.90;99.90;;;;;;5009682;28;20026;-81
2023/05/06 09:47:56;;;;;;;0.50;0.50;;;17.00;99.90;;;;;;5017422;28;20134;-76
2023/05/06 09:50:23;;;;;;;0.50;0.50;;;17.30;99.90;;;;;;5017970;28;20120;-82
2023/05/06 09:52:49;;;;;;;0.50;0.50;;;17.60;99.90;;;;;;4989882;28;20050;-82
2023/05/06 09:55:18;;;;;;;0.80;0.80;;;18.00;99.90;;;;;;5008254;28;20038;-79
2023/05/06 09:57:45;;;;;;;0.75;0.75;;;17.90;99.90;;;;;;5006334;28;20034;-81
2023/05/06 10:00:12;;;;;;;0.73;0.73;;;17.70;99.90;;;;;;5009835;28;20019;-82
2023/05/06 10:02:39;;;;;;;0.57;0.57;;;17.40;99.90;;;;;;5009854;28;20101;-79
2023/05/06 10:05:07;;;;;;;0.80;0.80;;;17.20;99.90;;;;;;5015921;28;20106;-78
2023/05/06 10:07:34;;;;;;;0.50;0.50;;;17.10;99.90;;;;;;5015225;28;20033;-79
2023/05/06 10:10:00;;;;;;;0.73;0.73;;;17.10;99.90;;;;;;5010681;28;20022;-80
2023/05/06 10:12:28;;;;;;;0.60;0.60;;;16.90;99.90;;;;;;5010987;28;20030;-81
2023/05/06 10:14:54;;;;;;;0.47;0.47;;;16.80;99.90;;;;;;5006403;28;20078;-80
2023/05/06 10:17:26;;;;;;;0.45;0.45;;;16.80;99.90;;;;;;5015024;28;20054;-77
2023/05/06 10:19:55;;;;;;;;;;;16.90;99.90;;;;;;5001231;28;20026;-78
2023/05/06 10:22:33;;;;;;;1.30;1.27;;;16.90;99.90;;;;;;5011667;28;19914;-81
2023/05/06 10:25:09;;;;;;;1.52;1.42;;;17.00;99.90;;;;;;4985554;28;20086;-81
2023/05/06 10:27:40;;;;;;;1.40;1.40;;;17.10;99.90;;;;;;5006681;28;20018;-81
2023/05/06 10:30:08;;;;;;;1.42;1.33;;;17.30;99.90;;;;;;4988673;28;20038;-79
2023/05/06 10:32:37;;;;;;;0.80;0.80;;;17.80;99.90;;;;;;5008729;28;20026;-80
2023/05/06 10:35:11;;;;;;;0.80;0.80;;;18.50;99.90;;;;;;4985518;28;20027;-80
2023/05/06 10:37:38;;;;;;;0.70;0.70;;;19.40;99.90;;;;;;4965959;28;20043;-80
2023/05/06 10:40:05;;;;;;;0.70;0.70;;;20.10;99.90;;;;;;5006223;28;20069;-80
2023/05/06 10:42:34;;;;;;;0.60;0.60;;;20.50;99.90;;;;;;5006066;28;20134;-79
2023/05/06 10:45:04;;;;;;;0.80;0.80;;;20.60;99.90;;;;;;5006726;28;20108;-83
2023/05/06 10:48:02;;;;;;;0.65;0.65;;;20.20;99.90;;;;;;4989697;28;20034;-81
2023/05/06 10:50:28;;;;;;;1.40;1.30;;;19.60;99.90;;;;;;4987813;28;20078;-81
2023/05/06 10:52:56;;;;;;;1.20;1.10;;;19.20;99.90;;;;;;5006629;28;20037;-82
2023/05/06 10:55:35;;;;;;;1.20;1.20;;;19.40;99.90;;;;;;4987622;28;20059;-81
2023/05/06 10:58:09;;;;;;;1.45;1.35;;;19.40;99.90;;;;;;5006465;28;20029;-80
2023/05/06 11:00:35;;;;;;;2.00;1.90;;;19.20;99.90;;;;;;5005500;28;20098;-83
2023/05/06 11:03:12;;;;;;;1.48;1.38;;;19.00;99.90;;;;;;5007347;28;20034;-81
2023/05/06 11:05:51;;;;;;;1.50;1.40;;;18.90;99.90;;;;;;5005208;28;20496;-81
2023/05/06 11:08:24;;;;;;;1.48;1.38;;;18.80;99.90;;;;;;5006739;28;20427;-82
2023/05/06 11:10:54;;;;;;;2.30;2.10;;;18.50;99.90;;;;;;5006645;28;20031;-80
2023/05/06 11:13:25;;;;;;;1.48;1.38;;;18.30;99.90;;;;;;5006031;28;20114;-81
2023/05/06 11:15:52;;;;;;;1.67;1.58;;;18.30;99.90;;;;;;4986070;28;20034;-80
2023/05/06 11:18:23;;;;;;;1.60;1.50;;;18.30;99.90;;;;;;5005444;28;20456;-81
2023/05/06 11:21:09;;;;;;;1.42;1.30;;;18.60;99.90;;;;;;4987828;28;20376;-79
2023/05/06 11:23:41;;;;;;;1.20;1.20;;;18.60;99.90;;;;;;4997071;28;20026;-79
2023/05/06 11:26:07;;;;;;;;;;;18.40;99.90;;;;;;5007109;28;20029;-81
2023/05/06 11:28:33;;;;;;;1.02;1.02;;;18.20;99.90;;;;;;5006005;28;19909;-84
2023/05/06 11:31:00;;;;;;;1.65;1.55;;;18.20;99.90;;;;;;4984929;28;20041;-79
2023/05/06 11:33:31;;;;;;;1.85;1.60;;;18.40;99.90;;;;;;5001498;28;20022;-81
2023/05/06 11:35:58;;;;;;;2.15;1.42;;;18.30;99.90;;;;;;5000747;28;20030;-81
2023/05/06 11:38:25;;;;;;;1.90;1.67;;;18.20;99.90;;;;;;5011196;28;20015;-77
2023/05/06 11:40:51;;;;;;;1.42;1.33;;;18.10;99.90;;;;;;4999267;28;20026;-77
2023/05/06 11:43:17;;;;;;;1.40;1.40;;;18.20;99.90;;;;;;4998992;28;20022;-78
2023/05/06 11:45:47;;;;;;;1.60;1.50;;;18.40;99.90;;;;;;5016696;28;20014;-77
2023/05/06 11:48:13;;;;;;;1.55;1.42;;;18.50;99.90;;;;;;5015967;28;20061;-78
2023/05/06 11:50:46;;;;;;;2.03;1.70;;;18.50;99.90;;;;;;5017310;28;20041;-78
2023/05/06 11:53:14;;;;;;;2.72;1.52;;;18.50;99.90;;;;;;4999685;28;20030;-76
2023/05/06 11:55:40;;;;;;;1.60;1.50;;;18.50;99.90;;;;;;5012614;28;20030;-81
2023/05/06 11:58:10;;;;;;;1.75;1.60;;;18.50;99.90;;;;;;4982806;28;20029;-79
2023/05/06 12:00:43;;;;;;;2.72;1.98;;;18.60;99.90;;;;;;4999146;28;20018;-78
2023/05/06 12:03:13;;;;;;;1.90;1.52;;;18.70;96.80;;;;;;4992970;28;20105;-82
2023/05/06 12:05:41;;;;;;;1.17;1.10;;;18.70;99.90;;;;;;4999217;28;20514;-81
2023/05/06 12:08:07;;;;;;;1.30;1.30;;;19.00;99.90;;;;;;5000215;28;20030;-82
2023/05/06 12:10:33;;;;;;;1.73;1.63;;;19.30;99.20;;;;;;4999754;28;20050;-82
2023/05/06 12:12:59;;;;;;;1.90;1.50;;;19.60;99.20;;;;;;4999931;28;20026;-83
2023/05/06 12:15:25;;;;;;;2.08;1.45;;;19.90;98.90;;;;;;4981734;28;20022;-80
2023/05/06 12:17:51;;;;;;;1.42;1.27;;;20.10;97.40;;;;;;4999706;28;20057;-81
2023/05/06 12:20:17;;;;;;;1.23;1.20;;;20.20;98.10;;;;;;4999072;28;20034;-81
2023/05/06 12:22:43;;;;;;;3.83;1.23;;;20.50;96.60;;;;;;4982905;28;20061;-81
2023/05/06 12:25:13;;;;;;;1.50;1.40;;;20.80;93.20;;;;;;4999229;28;20022;-81
2023/05/06 12:27:39;;;;;;;1.60;1.50;;;20.80;94.60;;;;;;4981288;28;20053;-82
2023/05/06 12:30:07;;;;;;;1.67;1.30;;;20.70;93.80;;;;;;4997900;28;20037;-79
2023/05/06 12:32:33;;;;;;;1.55;1.45;;;20.60;93.10;;;;;;4947974;28;20041;-81
2023/05/06 12:35:04;;;;;;;1.63;1.15;;;20.50;87.90;;;;;;4988702;28;20113;-77
2023/05/06 12:37:30;;;;;;;1.52;1.13;;;20.60;91.00;;;;;;4996524;28;20110;-77
2023/05/06 12:39:56;;;;;;;1.45;1.25;;;20.70;94.80;;;;;;5000190;28;20017;-79
2023/05/06 12:42:22;;;;;;;0.75;0.75;;;20.80;94.80;;;;;;5008519;28;20054;-81
2023/05/06 12:44:49;;;;;;;1.08;1.08;;;21.10;95.30;;;;;;4982659;28;20026;-80
2023/05/06 12:47:23;;;;;;;1.40;1.30;;;21.70;96.70;;;;;;4997445;28;20046;-81
2023/05/06 12:49:56;;;;;;;1.73;1.20;;;22.40;79.90;;;;;;4982646;28;20022;-82
2023/05/06 12:52:25;;;;;;;1.10;1.10;;;22.40;77.70;;;;;;4978232;28;20023;-82
2023/05/06 12:54:51;;;;;;;2.78;1.23;;;22.50;81.20;;;;;;4980270;28;20023;-81
2023/05/06 12:57:17;;;;;;;2.78;1.40;;;22.90;73.90;;;;;;4977648;28;20126;-80
2023/05/06 12:59:47;;;;;;;1.38;0.90;;;22.70;69.00;;;;;;4983948;28;20031;-80
2023/05/06 13:02:13;;;;;;;1.15;0.95;;;22.20;67.60;;;;;;5007010;28;20037;-82
2023/05/06 13:04:39;;;;;;;0.95;0.90;;;21.90;73.50;;;;;;5003720;28;20036;-80
2023/05/06 13:07:05;;;;;;;1.95;0.98;;;22.30;72.60;;;;;;5007176;28;20034;-80
2023/05/06 13:09:31;;;;;;;1.13;0.90;;;22.70;69.90;;;;;;5007804;28;20034;-80
2023/05/06 13:11:58;;;;;;;1.65;1.25;;;23.20;66.40;;;;;;5006664;28;20094;-81
2023/05/06 13:14:23;;;;;;;1.40;1.30;;;23.60;61.30;;;;;;4987158;28;20041;-79
2023/05/06 13:16:49;;;;;;;2.53;1.10;;;23.90;58.70;;;;;;5004898;28;20034;-81
2023/05/06 13:19:15;;;;;;;1.35;0.77;;;23.80;59.80;;;;;;4988532;28;20029;-80
2023/05/06 13:21:41;;;;;;;1.40;1.20;;;23.50;60.30;;;;;;4987474;28;20027;-80
2023/05/06 13:24:07;;;;;;;0.90;0.90;;;23.40;60.80;;;;;;5004632;28;20395;-80
2023/05/06 13:26:34;;;;;;;1.45;1.33;;;23.30;60.60;;;;;;5004464;28;20026;-79
2023/05/06 13:29:00;;;;;;;4.47;1.30;;;23.20;60.00;;;;;;4992441;28;20120;-78
2023/05/06 13:31:27;;;;;;;2.25;1.20;;;23.10;60.00;;;;;;4998336;28;20029;-79
2023/05/06 13:33:54;;;;;;;1.58;1.20;;;23.00;61.40;;;;;;5003146;28;20038;-77
2023/05/06 13:36:20;;;;;;;1.48;1.38;;;23.20;61.50;;;;;;4991075;28;20058;-80
2023/05/06 13:38:46;;;;;;;0.98;0.98;;;23.30;60.50;;;;;;4979770;28;20027;-79
2023/05/06 13:41:12;;;;;;;0.70;0.70;;;23.50;60.10;;;;;;5002643;28;20023;-76
2023/05/06 13:43:37;;;;;;;1.30;1.10;;;23.50;59.50;;;;;;5018440;28;20050;-78
2023/05/06 13:46:03;;;;;;;1.48;1.00;;;23.20;58.50;;;;;;5001151;28;20082;-79
2023/05/06 13:48:29;;;;;;;0.93;0.88;;;22.80;58.70;;;;;;5016615;28;20089;-80